Time;durP1;ratioP1;P1;durP2;ratioP2;P2;SDS_P1;SDS_P2;PMS_P1;PMS_P2;Temp;Humidity;BMP_temperature;BMP_pressure;BME280_temperature;BME280_humidity;BME280_pressure;Samples;Min_cycle;Max_cycle;Signal;HPM_P1;HPM_P2
2023/09/17 00:00:04;;;;;;;18.50;16.57;;;;;;;20.23;100.00;101226.59;5174974;28;20098;-72
2023/09/17 00:02:36;;;;;;;20.83;16.57;;;;;;;20.11;100.00;101225.94;5173856;28;20027;-73
2023/09/17 00:05:07;;;;;;;17.03;14.30;;;;;;;20.08;100.00;101218.28;5171538;28;20039;-72
2023/09/17 00:07:39;;;;;;;17.47;15.67;;;;;;;20.12;100.00;101222.31;5175492;28;20445;-74
2023/09/17 00:10:11;;;;;;;17.20;15.43;;;;;;;20.25;100.00;101210.50;5181556;28;20157;-73
2023/09/17 00:12:42;;;;;;;16.80;15.07;;;;;;;20.11;100.00;101219.81;5177290;28;20492;-73
2023/09/17 00:15:14;;;;;;;15.10;13.57;;;;;;;20.10;100.00;101218.97;5171298;28;20066;-74
2023/09/17 00:17:45;;;;;;;14.67;13.27;;;;;;;19.89;100.00;101212.03;5177926;28;20042;-74
2023/09/17 00:20:17;;;;;;;17.00;13.43;;;;;;;19.90;100.00;101218.16;5170205;28;20034;-72
2023/09/17 00:22:48;;;;;;;15.00;13.63;;;;;;;19.74;100.00;101222.25;5177637;28;20080;-73
2023/09/17 00:25:19;;;;;;;16.07;12.87;;;;;;;19.99;100.00;101219.09;5169255;28;20031;-74
2023/09/17 00:27:51;;;;;;;14.00;12.60;;;;;;;19.77;100.00;101214.00;5161844;28;20117;-73
2023/09/17 00:30:23;;;;;;;14.13;12.43;;;;;;;19.90;100.00;101223.47;5171748;28;20042;-72
2023/09/17 00:32:54;;;;;;;13.53;12.13;;;;;;;19.71;100.00;101230.50;5175425;28;20473;-73
2023/09/17 00:35:25;;;;;;;13.07;11.10;;;;;;;19.61;100.00;101214.59;5172202;28;20078;-73
2023/09/17 00:37:56;;;;;;;14.10;12.30;;;;;;;19.79;100.00;101229.81;5171211;28;20038;-73
2023/09/17 00:40:29;;;;;;;14.03;12.63;;;;;;;19.73;100.00;101220.59;5172350;28;20429;-73
2023/09/17 00:43:01;;;;;;;12.67;11.53;;;;;;;19.50;100.00;101228.03;5169874;28;20027;-76
2023/09/17 00:45:33;;;;;;;14.70;11.90;;;;;;;19.34;100.00;101226.78;5170488;28;20030;-74
2023/09/17 00:48:05;;;;;;;13.90;12.53;;;;;;;19.48;100.00;101219.38;5179721;28;20085;-74
2023/09/17 00:50:38;;;;;;;13.07;11.73;;;;;;;19.52;100.00;101213.63;5169968;28;20034;-74
2023/09/17 00:53:10;;;;;;;16.57;11.80;;;;;;;19.48;100.00;101209.56;5168994;28;20026;-74
2023/09/17 00:55:41;;;;;;;14.07;11.23;;;;;;;19.51;100.00;101217.28;5167593;28;20026;-74
2023/09/17 00:58:12;;;;;;;13.97;12.67;;;;;;;19.64;100.00;101210.81;5168026;28;20462;-74
2023/09/17 01:00:44;;;;;;;13.17;11.87;;;;;;;19.36;100.00;101195.63;5183977;28;20019;-74
2023/09/17 01:03:16;;;;;;;14.47;11.30;;;;;;;19.33;100.00;101202.06;5169613;28;20029;-74
2023/09/17 01:05:48;;;;;;;16.43;11.70;;;;;;;19.28;100.00;101204.31;5175745;28;20031;-74
2023/09/17 01:10:57;;;;;;;13.63;12.33;;;;;;;19.22;100.00;101195.06;5173529;28;20062;-75
2023/09/17 01:13:31;;;;;;;13.20;12.00;;;;;;;19.23;100.00;101206.53;5175375;28;20069;-74
2023/09/17 01:16:03;;;;;;;13.20;11.82;;;;;;;19.20;100.00;101201.53;5174252;28;20454;-74
2023/09/17 01:18:35;;;;;;;12.90;11.53;;;;;;;19.15;100.00;101198.44;5173228;28;20568;-73
2023/09/17 01:21:24;;;;;;;13.57;12.20;;;;;;;19.20;100.00;101191.72;5174326;28;20086;-74
2023/09/17 01:24:21;;;;;;;16.40;12.97;;;;;;;19.09;100.00;101195.31;5173494;28;20033;-74
2023/09/17 01:27:13;;;;;;;14.27;12.83;;;;;;;19.34;100.00;101185.13;5175848;28;20468;-74
2023/09/17 01:29:46;;;;;;;16.73;13.63;;;;;;;19.12;100.00;101178.31;5173912;28;20382;-74
2023/09/17 01:32:18;;;;;;;15.88;13.85;;;;;;;18.92;100.00;101177.47;5173924;28;20030;-73
2023/09/17 01:34:52;;;;;;;15.17;13.17;;;;;;;18.80;100.00;101185.53;5171999;28;20027;-73
2023/09/17 01:37:34;;;;;;;14.37;12.97;;;;;;;18.73;100.00;101185.25;5173204;28;20538;-73
2023/09/17 01:40:14;;;;;;;15.87;11.93;;;;;;;18.76;100.00;101178.00;5172868;28;20369;-73
2023/09/17 01:42:47;;;;;;;13.50;12.20;;;;;;;18.72;100.00;101178.28;5173647;28;20034;-74
2023/09/17 01:45:20;;;;;;;14.27;12.80;;;;;;;18.71;100.00;101170.47;5173725;28;20096;-73
2023/09/17 01:47:51;;;;;;;13.90;12.67;;;;;;;18.67;100.00;101171.69;5172355;28;20631;-74
2023/09/17 01:50:25;;;;;;;14.27;11.83;;;;;;;18.65;100.00;101161.22;5173619;28;20037;-74
2023/09/17 01:52:57;;;;;;;14.00;12.70;;;;;;;18.78;100.00;101160.13;5173344;28;20027;-73
2023/09/17 01:55:29;;;;;;;17.67;13.20;;;;;;;18.61;100.00;101160.66;5171641;28;20038;-73
2023/09/17 01:58:01;;;;;;;12.77;11.43;;;;;;;18.53;100.00;101144.59;5172482;28;20055;-74
2023/09/17 02:00:32;;;;;;;12.60;11.33;;;;;;;18.48;100.00;101145.00;5173455;28;20030;-73
2023/09/17 02:03:03;;;;;;;14.67;12.90;;;;;;;18.46;100.00;101143.47;5171587;28;20042;-74
2023/09/17 02:05:35;;;;;;;14.27;12.87;;;;;;;18.38;100.00;101138.84;5173339;28;20038;-74
2023/09/17 02:08:06;;;;;;;13.33;11.93;;;;;;;18.43;100.00;101155.19;5172563;28;20573;-74
2023/09/17 02:10:37;;;;;;;14.50;13.00;;;;;;;18.46;100.00;101162.03;5172432;28;20045;-73
2023/09/17 02:13:09;;;;;;;14.63;12.67;;;;;;;18.35;100.00;101161.19;5171780;28;20054;-73
2023/09/17 02:15:40;;;;;;;13.93;12.63;;;;;;;18.40;100.00;101162.59;5187034;28;20035;-74
2023/09/17 02:18:12;;;;;;;13.97;12.67;;;;;;;18.38;100.00;101152.09;5171662;28;20038;-74
2023/09/17 02:20:44;;;;;;;14.77;13.30;;;;;;;18.43;100.00;101163.13;5173017;28;20027;-74
2023/09/17 02:23:15;;;;;;;15.13;13.63;;;;;;;18.46;100.00;101156.72;5172423;28;20042;-74
2023/09/17 02:25:47;;;;;;;15.27;13.77;;;;;;;18.47;100.00;101153.94;5172721;28;20713;-74
2023/09/17 02:28:18;;;;;;;16.03;14.43;;;;;;;18.45;100.00;101147.13;5187069;28;20074;-74
2023/09/17 02:30:49;;;;;;;17.00;15.30;;;;;;;18.49;100.00;101148.50;5187550;28;20257;-74
2023/09/17 02:33:21;;;;;;;16.60;15.00;;;;;;;18.46;100.00;101140.81;5171144;28;20030;-73
2023/09/17 02:35:53;;;;;;;16.20;14.70;;;;;;;18.40;100.00;101141.38;5171843;28;20062;-74
2023/09/17 02:38:26;;;;;;;17.40;15.60;;;;;;;18.48;100.00;101128.28;5172476;28;20027;-73
2023/09/17 02:40:57;;;;;;;16.80;15.10;;;;;;;18.38;100.00;101129.06;5187966;28;20026;-73
2023/09/17 02:43:29;;;;;;;15.50;14.10;;;;;;;18.20;100.00;101133.38;5170277;28;20031;-74
2023/09/17 02:46:00;;;;;;;17.80;16.00;;;;;;;18.34;100.00;101127.69;5187184;28;20034;-74
2023/09/17 02:48:34;;;;;;;18.03;15.93;;;;;;;18.31;100.00;101122.63;5171157;28;20540;-74
2023/09/17 02:51:06;;;;;;;;;;;;;;;18.89;100.00;101119.34;5171730;28;20031;-74
2023/09/17 02:53:37;;;;;;;17.23;15.63;;;;;;;18.22;100.00;101118.19;5172416;28;19921;-75
2023/09/17 02:56:08;;;;;;;19.13;17.13;;;;;;;18.15;100.00;101115.22;5179450;28;20039;-73
2023/09/17 02:58:39;;;;;;;19.33;17.43;;;;;;;18.25;100.00;101113.44;5169080;28;20026;-73
2023/09/17 03:01:23;;;;;;;19.67;17.73;;;;;;;18.31;100.00;101119.16;5172256;28;20030;-75
2023/09/17 03:03:54;;;;;;;19.10;16.93;;;;;;;18.14;100.00;101119.69;5171115;28;20497;-74
2023/09/17 03:06:25;;;;;;;19.17;17.13;;;;;;;18.02;100.00;101123.38;5171695;28;20062;-74
2023/09/17 03:08:57;;;;;;;19.97;17.97;;;;;;;18.09;100.00;101113.91;5172083;28;20047;-74
2023/09/17 03:11:28;;;;;;;18.83;17.13;;;;;;;18.10;100.00;101104.16;5171870;28;20027;-74
2023/09/17 03:14:00;;;;;;;19.00;17.00;;;;;;;17.93;100.00;101100.31;5171616;28;20030;-74
2023/09/17 03:16:31;;;;;;;20.70;16.87;;;;;;;17.94;100.00;101109.97;5172182;28;20454;-75
2023/09/17 03:19:02;;;;;;;19.80;16.27;;;;;;;17.95;100.00;101106.34;5170468;28;20103;-74
2023/09/17 03:21:40;;;;;;;18.90;16.93;;;;;;;17.77;100.00;101106.97;5170972;28;20485;-74
2023/09/17 03:24:14;;;;;;;19.97;17.87;;;;;;;17.93;100.00;101113.56;5171846;28;20101;-74
2023/09/17 03:26:46;;;;;;;19.00;17.10;;;;;;;17.92;100.00;101118.06;5171134;28;20023;-73
2023/09/17 03:29:17;;;;;;;19.77;17.57;;;;;;;17.97;100.00;101117.63;5171341;28;20029;-74
2023/09/17 03:31:48;;;;;;;17.67;15.87;;;;;;;17.89;100.00;101113.03;5171107;28;20034;-74
2023/09/17 03:34:20;;;;;;;19.20;17.30;;;;;;;17.76;100.00;101118.53;5169885;28;20469;-74
2023/09/17 03:36:51;;;;;;;20.63;17.93;;;;;;;17.88;100.00;101106.88;5185136;28;20046;-74
2023/09/17 03:39:24;;;;;;;20.00;18.10;;;;;;;17.93;100.00;101119.72;5186222;28;20045;-74
2023/09/17 03:41:55;;;;;;;19.87;17.93;;;;;;;17.78;100.00;101111.31;5171550;28;20517;-74
2023/09/17 03:44:27;;;;;;;19.23;16.70;;;;;;;17.83;100.00;101109.09;5170583;28;20022;-74
2023/09/17 03:46:58;;;;;;;19.47;17.43;;;;;;;17.77;100.00;101107.81;5170898;28;20095;-73
2023/09/17 03:49:29;;;;;;;18.40;16.57;;;;;;;17.84;100.00;101105.47;5170048;28;20450;-74
2023/09/17 03:52:04;;;;;;;19.13;17.33;;;;;;;17.87;100.00;101110.47;5170648;28;20039;-73
2023/09/17 03:54:35;;;;;;;19.23;17.23;;;;;;;17.75;100.00;101101.78;5171664;28;20454;-73
2023/09/17 03:57:08;;;;;;;21.10;19.00;;;;;;;17.76;100.00;101107.94;5170796;28;20030;-73
2023/09/17 03:59:40;;;;;;;21.67;17.73;;;;;;;17.59;100.00;101097.00;5185936;28;20033;-74
2023/09/17 04:02:11;;;;;;;19.43;17.43;;;;;;;17.59;100.00;101097.00;5185106;28;20134;-74
2023/09/17 04:04:42;;;;;;;17.93;16.07;;;;;;;17.68;100.00;101113.06;5185488;28;20307;-74
2023/09/17 04:07:14;;;;;;;19.23;17.30;;;;;;;17.64;100.00;101097.47;5170608;28;20469;-74
2023/09/17 04:09:45;;;;;;;20.93;18.83;;;;;;;17.81;100.00;101108.38;5170505;28;20054;-74
2023/09/17 04:12:16;;;;;;;19.33;17.47;;;;;;;17.65;100.00;101101.75;5170916;28;20090;-74
2023/09/17 04:14:47;;;;;;;20.80;18.57;;;;;;;17.66;100.00;101111.38;5170139;28;20031;-74
2023/09/17 04:17:19;;;;;;;21.47;19.37;;;;;;;17.80;100.00;101100.56;5169433;28;20031;-73
2023/09/17 04:19:51;;;;;;;20.03;18.03;;;;;;;17.79;100.00;101102.38;5170323;28;20126;-73
2023/09/17 04:22:22;;;;;;;21.47;18.97;;;;;;;17.86;100.00;101106.16;5185704;28;20483;-74
2023/09/17 04:24:55;;;;;;;21.30;19.10;;;;;;;17.89;100.00;101108.53;5171021;28;20489;-73
2023/09/17 04:27:26;;;;;;;22.63;20.30;;;;;;;17.88;100.00;101100.75;5171157;28;20102;-73
2023/09/17 04:29:58;;;;;;;21.13;19.23;;;;;;;17.76;100.00;101103.50;5171877;28;20113;-74
2023/09/17 04:32:29;;;;;;;22.37;20.30;;;;;;;17.69;100.00;101104.16;5171858;28;20035;-74
2023/09/17 04:35:01;;;;;;;22.50;20.43;;;;;;;17.72;100.00;101096.78;5174963;28;20022;-75
2023/09/17 04:37:33;;;;;;;20.17;18.37;;;;;;;17.82;100.00;101102.09;5176461;28;20034;-73
2023/09/17 04:40:11;;;;;;;21.97;19.87;;;;;;;17.81;100.00;101100.44;5177296;28;20474;-74
2023/09/17 04:42:43;;;;;;;21.13;19.10;;;;;;;17.70;100.00;101097.91;5180245;28;20390;-74
2023/09/17 04:45:36;;;;;;;21.97;19.77;;;;;;;18.09;100.00;101105.97;5193595;28;20038;-73
2023/09/17 04:48:09;;;;;;;22.80;20.47;;;;;;;17.85;100.00;101091.25;5176164;28;20049;-74
2023/09/17 04:50:42;;;;;;;22.43;20.23;;;;;;;17.93;100.00;101095.03;5176517;28;20030;-74
2023/09/17 04:53:14;;;;;;;26.75;23.95;;;;;;;17.95;100.00;101101.03;5174715;28;20031;-74
2023/09/17 04:55:45;;;;;;;21.30;19.30;;;;;;;17.75;100.00;101093.84;5175804;28;20030;-74
2023/09/17 04:58:17;;;;;;;22.70;20.50;;;;;;;17.74;100.00;101075.44;5189169;28;20027;-74
2023/09/17 05:00:48;;;;;;;23.23;21.10;;;;;;;17.81;100.00;101086.34;5174399;28;20023;-72
2023/09/17 05:03:20;;;;;;;24.60;22.10;;;;;;;17.95;100.00;101093.09;5173100;28;20663;-73
2023/09/17 05:05:51;;;;;;;25.33;21.83;;;;;;;17.89;100.00;101082.06;5176019;28;20482;-74
2023/09/17 05:08:24;;;;;;;23.20;21.07;;;;;;;17.66;100.00;101095.50;5173822;28;20027;-74
2023/09/17 05:10:55;;;;;;;24.20;21.47;;;;;;;17.86;100.00;101097.38;5173841;28;20133;-74
2023/09/17 05:13:26;;;;;;;24.23;21.83;;;;;;;17.80;100.00;101095.28;5174182;28;20170;-74
2023/09/17 05:15:58;;;;;;;25.17;22.93;;;;;;;17.90;100.00;101104.09;5173399;28;20041;-72
2023/09/17 05:18:30;;;;;;;25.53;23.03;;;;;;;17.97;100.00;101099.09;5187916;28;20759;-73
2023/09/17 05:21:01;;;;;;;24.13;21.67;;;;;;;17.92;100.00;101101.31;5173772;28;20040;-75
2023/09/17 05:23:32;;;;;;;24.77;22.37;;;;;;;17.85;100.00;101099.22;5188097;28;20525;-73
2023/09/17 05:26:04;;;;;;;24.50;22.40;;;;;;;17.88;100.00;101101.59;5173969;28;20114;-73
2023/09/17 05:28:35;;;;;;;25.77;23.07;;;;;;;17.98;100.00;101101.59;5174305;28;20532;-73
2023/09/17 05:31:06;;;;;;;24.70;22.37;;;;;;;18.01;100.00;101106.63;5173117;28;20031;-73
2023/09/17 05:33:37;;;;;;;25.73;23.33;;;;;;;17.86;100.00;101106.16;5172269;28;20031;-73
2023/09/17 05:36:09;;;;;;;26.40;23.90;;;;;;;17.98;100.00;101108.72;5173091;28;20035;-74
2023/09/17 05:38:40;;;;;;;25.03;22.50;;;;;;;17.85;100.00;101111.59;5188459;28;20037;-73
2023/09/17 05:41:12;;;;;;;26.93;24.33;;;;;;;17.96;100.00;101110.69;5173372;28;20037;-73
2023/09/17 05:43:43;;;;;;;24.63;22.43;;;;;;;17.94;100.00;101115.25;5173350;28;20033;-73
2023/09/17 05:46:14;;;;;;;26.03;23.43;;;;;;;17.93;100.00;101095.03;5172275;28;20421;-73
2023/09/17 05:48:46;;;;;;;26.80;24.13;;;;;;;18.04;100.00;101108.19;5172772;28;20034;-73
2023/09/17 05:51:17;;;;;;;25.47;23.10;;;;;;;17.98;100.00;101111.34;5187267;28;20042;-73
2023/09/17 05:53:48;;;;;;;25.70;23.30;;;;;;;17.96;100.00;101108.03;5173351;28;20097;-73
2023/09/17 05:56:21;;;;;;;27.53;24.87;;;;;;;17.99;100.00;101107.75;5173591;28;20719;-73
2023/09/17 05:58:52;;;;;;;28.47;25.57;;;;;;;18.00;100.00;101099.66;5188297;28;20034;-73
2023/09/17 06:01:23;;;;;;;25.37;22.77;;;;;;;17.92;100.00;101107.47;5172320;28;20027;-73
2023/09/17 06:03:55;;;;;;;25.50;23.17;;;;;;;17.81;100.00;101105.72;5172384;28;20042;-74
2023/09/17 06:06:26;;;;;;;27.53;25.00;;;;;;;17.77;100.00;101093.72;5172517;28;20046;-74
2023/09/17 06:08:57;;;;;;;26.17;23.67;;;;;;;17.75;100.00;101100.97;5172702;28;20054;-74
2023/09/17 06:11:30;;;;;;;27.17;24.47;;;;;;;17.81;100.00;101103.09;5172894;28;20038;-74
2023/09/17 06:14:01;;;;;;;26.77;24.23;;;;;;;17.76;100.00;101107.94;5170938;28;20026;-74
2023/09/17 06:16:32;;;;;;;29.23;26.23;;;;;;;17.77;100.00;101106.97;5171756;28;20026;-73
2023/09/17 06:19:04;;;;;;;26.57;23.87;;;;;;;17.73;100.00;101109.03;5171122;28;20035;-74
2023/09/17 06:21:35;;;;;;;26.00;23.43;;;;;;;17.78;100.00;101100.72;5172553;28;20454;-74
2023/09/17 06:24:07;;;;;;;29.13;25.10;;;;;;;17.81;100.00;101107.53;5186420;28;20031;-74
2023/09/17 06:26:38;;;;;;;25.80;23.30;;;;;;;17.78;100.00;101100.72;5187603;28;20045;-73
2023/09/17 06:29:10;;;;;;;28.43;25.63;;;;;;;17.98;100.00;101104.25;5172060;28;20070;-74
2023/09/17 06:31:41;;;;;;;27.13;24.60;;;;;;;17.97;100.00;101115.00;5170855;28;20031;-75
2023/09/17 06:34:13;;;;;;;28.43;25.47;;;;;;;18.00;100.00;101106.78;5172401;28;20117;-74
2023/09/17 06:36:44;;;;;;;27.90;25.40;;;;;;;18.00;100.00;101110.25;5172644;28;20492;-74
2023/09/17 06:39:17;;;;;;;26.53;24.10;;;;;;;18.03;100.00;101109.16;5187058;28;20035;-74
2023/09/17 06:41:48;;;;;;;29.17;26.13;;;;;;;18.02;100.00;101102.19;5172113;28;20534;-72
2023/09/17 06:44:19;;;;;;;28.70;25.90;;;;;;;18.08;100.00;101106.09;5172055;28;20900;-72
2023/09/17 06:46:51;;;;;;;30.27;27.17;;;;;;;18.08;100.00;101100.81;5175977;28;20031;-73
2023/09/17 06:49:22;;;;;;;27.63;24.87;;;;;;;18.05;100.00;101106.38;5172240;28;20519;-73
2023/09/17 06:51:55;;;;;;;28.23;25.57;;;;;;;17.98;100.00;101108.72;5172409;28;20027;-73
2023/09/17 06:54:26;;;;;;;29.00;26.07;;;;;;;17.94;100.00;101104.66;5171770;28;20082;-73
2023/09/17 06:56:58;;;;;;;28.57;25.80;;;;;;;17.97;100.00;101099.94;5172121;28;20034;-73
2023/09/17 06:59:29;;;;;;;29.70;26.00;;;;;;;17.93;100.00;101098.53;5170988;28;20030;-73
2023/09/17 07:02:00;;;;;;;28.20;25.47;;;;;;;18.11;100.00;101101.38;5170925;28;20042;-74
2023/09/17 07:04:31;;;;;;;29.90;26.70;;;;;;;18.15;100.00;101107.28;5170840;28;20031;-74
2023/09/17 07:07:03;;;;;;;29.10;26.20;;;;;;;18.20;100.00;101114.81;5171485;28;20681;-73
2023/09/17 07:09:34;;;;;;;29.93;26.93;;;;;;;18.26;100.00;101115.09;5171695;28;20134;-74
2023/09/17 07:12:06;;;;;;;30.83;28.00;;;;;;;18.17;100.00;101107.97;5170961;28;20075;-73
2023/09/17 07:14:37;;;;;;;29.90;27.20;;;;;;;18.25;100.00;101107.28;5170308;28;20121;-73
2023/09/17 07:17:09;;;;;;;31.57;28.40;;;;;;;18.43;100.00;101114.59;5169682;28;20345;-73
2023/09/17 07:19:40;;;;;;;30.40;27.70;;;;;;;18.34;100.00;101108.28;5186229;28;20023;-73
2023/09/17 07:22:14;;;;;;;29.60;26.77;;;;;;;18.31;100.00;101097.97;5172031;28;20030;-73
2023/09/17 07:24:46;;;;;;;30.40;27.60;;;;;;;18.36;100.00;101093.91;5171665;28;20038;-73
2023/09/17 07:27:17;;;;;;;30.63;27.63;;;;;;;18.41;100.00;101097.97;5170391;28;20031;-73
2023/09/17 07:29:48;;;;;;;31.03;27.97;;;;;;;18.41;100.00;101090.88;5186311;28;20034;-73
2023/09/17 07:32:19;;;;;;;30.17;26.97;;;;;;;18.48;100.00;101085.84;5182297;28;20033;-73
2023/09/17 07:34:51;;;;;;;29.23;26.70;;;;;;;18.47;100.00;101089.44;5171175;28;20430;-74
2023/09/17 07:37:22;;;;;;;31.03;27.90;;;;;;;18.52;100.00;101092.53;5171089;28;20062;-73
2023/09/17 07:39:58;;;;;;;32.10;29.13;;;;;;;18.53;100.00;101086.25;5185998;28;20125;-74
2023/09/17 07:42:29;;;;;;;32.47;29.40;;;;;;;18.65;100.00;101099.38;5169196;28;20030;-73
2023/09/17 07:45:00;;;;;;;34.03;30.70;;;;;;;18.67;100.00;101097.44;5171579;28;20041;-74
2023/09/17 07:47:31;;;;;;;36.63;30.33;;;;;;;18.61;100.00;101090.84;5169896;28;20778;-74
2023/09/17 07:50:03;;;;;;;33.93;30.67;;;;;;;18.79;100.00;101093.66;5169865;28;20042;-73
2023/09/17 07:52:35;;;;;;;35.43;31.70;;;;;;;18.69;100.00;101085.72;5185818;28;20597;-73
2023/09/17 07:55:07;;;;;;;34.50;31.30;;;;;;;18.84;100.00;101096.72;5185594;28;20045;-74
2023/09/17 07:57:39;;;;;;;34.93;31.43;;;;;;;18.81;100.00;101094.38;5169476;28;20043;-73
2023/09/17 08:00:12;;;;;;;35.13;31.70;;;;;;;18.93;100.00;101107.47;5171375;28;20041;-74
2023/09/17 08:02:44;;;;;;;36.93;33.07;;;;;;;18.93;100.00;101120.75;5170284;28;20058;-74
2023/09/17 08:05:15;;;;;;;36.13;32.83;;;;;;;18.94;100.00;101125.06;5170999;28;20425;-74
2023/09/17 08:07:47;;;;;;;37.27;33.67;;;;;;;19.01;100.00;101118.22;5171307;28;20022;-73
2023/09/17 08:10:18;;;;;;;37.17;33.63;;;;;;;18.98;100.00;101118.50;5185913;28;20087;-74
2023/09/17 08:12:49;;;;;;;37.20;33.60;;;;;;;19.06;100.00;101125.78;5172193;28;20533;-73
2023/09/17 08:15:22;;;;;;;37.40;34.00;;;;;;;19.07;100.00;101128.28;5172882;28;20034;-74
2023/09/17 08:17:53;;;;;;;38.97;35.13;;;;;;;19.05;100.00;101122.28;5173395;28;20038;-73
2023/09/17 08:20:25;;;;;;;39.60;35.93;;;;;;;19.13;100.00;101134.03;5173466;28;20031;-73
2023/09/17 08:22:57;;;;;;;38.93;35.23;;;;;;;19.07;100.00;101128.28;5174977;28;20031;-73
2023/09/17 08:25:30;;;;;;;38.73;34.87;;;;;;;19.11;100.00;101126.22;5175891;28;20027;-73
2023/09/17 08:28:02;;;;;;;40.40;36.27;;;;;;;19.10;100.00;101129.81;5173361;28;20371;-75
2023/09/17 08:30:33;;;;;;;39.47;35.60;;;;;;;19.13;100.00;101132.19;5172315;28;20062;-74
2023/09/17 08:33:05;;;;;;;40.27;36.37;;;;;;;19.17;100.00;101127.44;5170429;28;20035;-74
2023/09/17 08:35:37;;;;;;;41.23;37.13;;;;;;;19.12;100.00;101111.09;5171606;28;20051;-74
2023/09/17 08:38:10;;;;;;;42.00;37.43;;;;;;;19.34;100.00;101118.75;5170862;28;20462;-75
2023/09/17 08:40:42;;;;;;;43.97;39.67;;;;;;;19.34;100.00;101118.75;5169431;28;20038;-74
2023/09/17 08:43:14;;;;;;;43.70;39.27;;;;;;;19.40;100.00;101116.50;5184659;28;20038;-74
2023/09/17 08:45:46;;;;;;;42.43;38.27;;;;;;;19.45;100.00;101116.91;5167750;28;20039;-74
2023/09/17 08:48:17;;;;;;;44.73;40.50;;;;;;;19.46;100.00;101126.56;5168956;28;20529;-72
2023/09/17 08:50:50;;;;;;;43.57;39.27;;;;;;;19.42;100.00;101120.72;5156593;28;20181;-74
2023/09/17 08:53:30;;;;;;;48.63;40.37;;;;;;;19.61;100.00;101134.91;5160226;28;20045;-74
2023/09/17 08:56:03;;;;;;;44.40;39.93;;;;;;;19.58;100.00;101136.00;5162079;28;20031;-73
2023/09/17 08:58:43;;;;;;;45.17;40.47;;;;;;;19.73;100.00;101143.53;5161399;28;20442;-72
2023/09/17 09:01:17;;;;;;;43.80;39.70;;;;;;;19.65;100.00;101140.78;5160243;28;20511;-72
2023/09/17 09:03:49;;;;;;;41.95;37.88;;;;;;;19.74;100.00;101145.19;5162166;28;20448;-75
2023/09/17 09:06:22;;;;;;;44.20;39.83;;;;;;;19.74;100.00;101150.50;5168406;28;20038;-74
2023/09/17 09:08:54;;;;;;;44.40;39.63;;;;;;;19.80;100.00;101149.09;5169762;28;20764;-73
2023/09/17 09:11:26;;;;;;;51.30;39.53;;;;;;;19.79;100.00;101147.44;5168154;28;20054;-73
2023/09/17 09:13:58;;;;;;;45.50;40.73;;;;;;;19.79;100.00;101158.88;5168260;28;20027;-73
2023/09/17 09:16:32;;;;;;;48.83;41.37;;;;;;;19.84;100.00;101161.13;5168245;28;20038;-74
2023/09/17 09:19:05;;;;;;;47.30;42.67;;;;;;;19.76;100.00;101172.47;5181127;28;20027;-76
2023/09/17 09:21:36;;;;;;;51.10;42.17;;;;;;;19.79;100.00;101164.19;5169540;28;20070;-74
2023/09/17 09:24:08;;;;;;;49.30;43.87;;;;;;;19.75;100.00;101162.81;5168696;28;20035;-73
2023/09/17 09:26:40;;;;;;;49.00;41.90;;;;;;;19.71;100.00;101145.50;5172650;28;20031;-72
2023/09/17 09:29:11;;;;;;;47.97;42.20;;;;;;;19.69;100.00;101153.59;5187527;28;20069;-72
2023/09/17 09:31:42;;;;;;;49.37;43.97;;;;;;;19.75;100.00;101151.34;5171564;28;20043;-72
2023/09/17 09:34:14;;;;;;;48.43;43.13;;;;;;;19.76;100.00;101153.03;5172505;28;20030;-72
2023/09/17 09:36:45;;;;;;;47.57;42.40;;;;;;;19.74;100.00;101150.50;5172772;28;20042;-73
2023/09/17 09:39:16;;;;;;;53.07;43.50;;;;;;;19.68;100.00;101140.47;5187501;28;20038;-73
2023/09/17 09:41:48;;;;;;;45.87;40.17;;;;;;;19.73;100.00;101140.88;5172377;28;20109;-72
2023/09/17 09:44:24;;;;;;;49.10;41.17;;;;;;;19.79;100.00;101139.47;5170919;28;21182;-71
2023/09/17 09:46:57;;;;;;;47.07;41.63;;;;;;;19.75;100.00;101140.72;5171555;28;20054;-71
2023/09/17 09:49:38;;;;;;;51.53;42.30;;;;;;;19.70;100.00;101139.34;5171979;28;20039;-72
2023/09/17 09:52:14;;;;;;;52.27;41.50;;;;;;;19.82;100.00;101141.81;5172012;28;20122;-70
2023/09/17 09:54:46;;;;;;;49.63;40.87;;;;;;;19.73;100.00;101142.69;5160293;28;20550;-72
2023/09/17 09:57:19;;;;;;;54.93;44.23;;;;;;;19.71;100.00;101137.50;5171660;28;20038;-72
2023/09/17 09:59:51;;;;;;;48.53;43.27;;;;;;;19.68;100.00;101146.63;5172603;28;20061;-72
2023/09/17 10:02:22;;;;;;;48.03;42.60;;;;;;;19.77;100.00;101144.09;5169696;28;20096;-71
2023/09/17 10:04:54;;;;;;;48.00;41.40;;;;;;;19.83;100.00;101140.81;5172049;28;20080;-72
2023/09/17 10:07:25;;;;;;;51.67;41.43;;;;;;;19.82;100.00;101136.50;5171203;28;20488;-73
2023/09/17 10:09:57;;;;;;;53.10;43.57;;;;;;;19.87;100.00;101139.56;5171105;28;20050;-72
2023/09/17 10:12:28;;;;;;;49.93;42.23;;;;;;;19.93;100.00;101138.97;5171706;28;20043;-71
2023/09/17 10:15:00;;;;;;;49.93;42.63;;;;;;;20.09;100.00;101136.69;5171962;28;20034;-72
2023/09/17 10:17:37;;;;;;;51.70;44.07;;;;;;;20.12;100.00;101136.41;5171468;28;20512;-72
2023/09/17 10:20:10;;;;;;;48.67;42.93;;;;;;;20.23;100.00;101133.53;5182332;28;20034;-72
2023/09/17 10:22:42;;;;;;;47.47;42.03;;;;;;;20.27;100.00;101140.22;5178034;28;20410;-72
2023/09/17 10:25:16;;;;;;;43.40;38.73;;;;;;;20.34;100.00;101126.31;5171698;28;20022;-72
2023/09/17 10:27:49;;;;;;;54.03;41.40;;;;;;;20.52;100.00;101127.19;5171692;28;20023;-72
2023/09/17 10:30:22;;;;;;;43.73;38.97;;;;;;;20.64;100.00;101122.50;5171092;28;20121;-70
2023/09/17 10:32:55;;;;;;;44.47;37.40;;;;;;;20.57;100.00;101126.75;5170997;28;20286;-70
2023/09/17 10:35:28;;;;;;;42.43;37.90;;;;;;;20.69;100.00;101138.00;5184733;28;20054;-71
2023/09/17 10:38:03;;;;;;;40.83;35.13;;;;;;;20.78;100.00;101128.25;5171378;28;20041;-71
2023/09/17 10:40:35;;;;;;;45.97;37.27;;;;;;;20.74;100.00;101125.06;5168470;28;20018;-71
2023/09/17 10:43:07;;;;;;;46.10;37.73;;;;;;;20.79;100.00;101128.09;5171639;28;20038;-70
2023/09/17 10:45:41;;;;;;;42.60;36.85;;;;;;;20.76;100.00;101117.75;5171048;28;20023;-72
2023/09/17 10:48:14;;;;;;;40.07;35.00;;;;;;;20.85;100.00;101121.34;5170823;28;20426;-70
2023/09/17 10:50:46;;;;;;;38.47;33.87;;;;;;;20.82;100.00;101111.00;5171865;28;20312;-72
2023/09/17 10:53:17;;;;;;;38.83;34.50;;;;;;;20.86;100.00;101108.84;5168635;28;20516;-68
2023/09/17 10:56:06;;;;;;;42.08;34.90;;;;;;;21.06;100.00;101111.38;5185538;28;20015;-68
2023/09/17 10:58:39;;;;;;;40.53;34.30;;;;;;;21.15;100.00;101110.44;5170031;28;20035;-72
2023/09/17 11:01:14;;;;;;;41.60;34.80;;;;;;;21.24;100.00;101106.81;5170047;28;20732;-70
2023/09/17 11:03:55;;;;;;;36.45;32.47;;;;;;;21.25;100.00;101113.00;5168689;28;20022;-72
2023/09/17 11:06:29;;;;;;;41.13;36.22;;;;;;;21.27;100.00;101109.19;5165823;28;20370;-71
2023/09/17 11:09:01;;;;;;;36.70;32.97;;;;;;;21.37;100.00;101118.91;5188780;28;20039;-72
2023/09/17 11:11:37;;;;;;;39.03;34.05;;;;;;;21.52;100.00;101114.66;5168935;28;20118;-73
2023/09/17 11:14:10;;;;;;;35.20;31.45;;;;;;;21.66;100.00;101120.38;5168059;28;20062;-72
2023/09/17 11:16:42;;;;;;;36.97;32.53;;;;;;;21.82;100.00;101127.66;5170412;28;20027;-72
2023/09/17 11:19:19;;;;;;;34.00;29.88;;;;;;;21.76;100.00;101121.09;5170854;28;20046;-71
2023/09/17 11:22:08;;;;;;;34.20;30.67;;;;;;;22.08;100.00;101121.41;5171172;28;20049;-72
2023/09/17 11:24:44;;;;;;;28.63;25.80;;;;;;;21.96;100.00;101126.22;5164544;28;20546;-71
2023/09/17 11:27:19;;;;;;;28.85;25.73;;;;;;;21.98;100.00;101131.38;5170691;28;20397;-72